sensor_id;sensor_type;location;lat;lon;timestamp;P1;durP1;ratioP1;P2;durP2;ratioP2
61085;SDS011;46967;48.876;2.136;2023-02-24T00:00:42;38.53;;;19.45;;
61085;SDS011;46967;48.876;2.136;2023-02-24T00:03:15;39.60;;;19.92;;
61085;SDS011;46967;48.876;2.136;2023-02-24T00:05:40;39.97;;;20.55;;
61085;SDS011;46967;48.876;2.136;2023-02-24T00:08:08;39.35;;;19.55;;
61085;SDS011;46967;48.876;2.136;2023-02-24T00:10:33;39.78;;;19.15;;
61085;SDS011;46967;48.876;2.136;2023-02-24T00:13:01;43.30;;;21.70;;
61085;SDS011;46967;48.876;2.136;2023-02-24T00:15:27;47.08;;;21.15;;
61085;SDS011;46967;48.876;2.136;2023-02-24T00:17:53;40.00;;;20.40;;
61085;SDS011;46967;48.876;2.136;2023-02-24T00:20:18;41.08;;;20.70;;
61085;SDS011;46967;48.876;2.136;2023-02-24T00:22:44;42.58;;;20.52;;
61085;SDS011;46967;48.876;2.136;2023-02-24T00:25:09;39.88;;;20.25;;
61085;SDS011;46967;48.876;2.136;2023-02-24T00:27:36;42.67;;;20.40;;
61085;SDS011;46967;48.876;2.136;2023-02-24T00:30:01;44.15;;;20.50;;
61085;SDS011;46967;48.876;2.136;2023-02-24T00:32:29;45.17;;;21.77;;
61085;SDS011;46967;48.876;2.136;2023-02-24T00:34:54;43.63;;;19.25;;
61085;SDS011;46967;48.876;2.136;2023-02-24T00:37:20;48.95;;;21.67;;
61085;SDS011;46967;48.876;2.136;2023-02-24T00:39:48;41.55;;;20.40;;
61085;SDS011;46967;48.876;2.136;2023-02-24T00:42:16;51.67;;;22.40;;
61085;SDS011;46967;48.876;2.136;2023-02-24T00:44:45;40.83;;;20.55;;
61085;SDS011;46967;48.876;2.136;2023-02-24T00:47:11;44.08;;;20.67;;
61085;SDS011;46967;48.876;2.136;2023-02-24T00:49:38;46.92;;;21.55;;
61085;SDS011;46967;48.876;2.136;2023-02-24T00:52:10;47.88;;;21.23;;
61085;SDS011;46967;48.876;2.136;2023-02-24T00:54:41;45.22;;;22.15;;
61085;SDS011;46967;48.876;2.136;2023-02-24T00:57:07;46.72;;;21.23;;
61085;SDS011;46967;48.876;2.136;2023-02-24T00:59:33;43.50;;;22.02;;
61085;SDS011;46967;48.876;2.136;2023-02-24T01:02:00;44.45;;;22.90;;
61085;SDS011;46967;48.876;2.136;2023-02-24T01:04:27;45.40;;;21.67;;
61085;SDS011;46967;48.876;2.136;2023-02-24T01:06:53;49.65;;;23.85;;
61085;SDS011;46967;48.876;2.136;2023-02-24T01:09:24;45.95;;;23.45;;
61085;SDS011;46967;48.876;2.136;2023-02-24T01:11:52;48.50;;;22.85;;
61085;SDS011;46967;48.876;2.136;2023-02-24T01:14:37;49.63;;;23.83;;
61085;SDS011;46967;48.876;2.136;2023-02-24T01:17:04;46.90;;;23.80;;
61085;SDS011;46967;48.876;2.136;2023-02-24T01:19:31;50.35;;;24.13;;
61085;SDS011;46967;48.876;2.136;2023-02-24T01:21:57;48.45;;;22.73;;
61085;SDS011;46967;48.876;2.136;2023-02-24T01:24:28;51.13;;;22.42;;
61085;SDS011;46967;48.876;2.136;2023-02-24T01:26:57;51.42;;;23.30;;
61085;SDS011;46967;48.876;2.136;2023-02-24T01:29:23;50.60;;;23.90;;
61085;SDS011;46967;48.876;2.136;2023-02-24T01:31:49;47.50;;;23.02;;
61085;SDS011;46967;48.876;2.136;2023-02-24T01:34:15;46.53;;;24.00;;
61085;SDS011;46967;48.876;2.136;2023-02-24T01:36:41;46.70;;;23.38;;
61085;SDS011;46967;48.876;2.136;2023-02-24T01:39:07;49.03;;;23.45;;
61085;SDS011;46967;48.876;2.136;2023-02-24T01:41:35;49.08;;;24.73;;
61085;SDS011;46967;48.876;2.136;2023-02-24T01:44:06;44.78;;;23.48;;
61085;SDS011;46967;48.876;2.136;2023-02-24T01:46:53;46.97;;;22.60;;
61085;SDS011;46967;48.876;2.136;2023-02-24T01:49:20;46.65;;;23.35;;
61085;SDS011;46967;48.876;2.136;2023-02-24T01:54:26;47.08;;;23.25;;
61085;SDS011;46967;48.876;2.136;2023-02-24T01:56:55;45.35;;;23.08;;
61085;SDS011;46967;48.876;2.136;2023-02-24T01:59:22;47.60;;;23.15;;
61085;SDS011;46967;48.876;2.136;2023-02-24T02:01:52;47.25;;;24.00;;
61085;SDS011;46967;48.876;2.136;2023-02-24T02:07:12;45.05;;;22.55;;
61085;SDS011;46967;48.876;2.136;2023-02-24T02:09:39;44.15;;;22.10;;
61085;SDS011;46967;48.876;2.136;2023-02-24T02:12:06;46.65;;;23.80;;
61085;SDS011;46967;48.876;2.136;2023-02-24T02:14:33;43.70;;;22.08;;
61085;SDS011;46967;48.876;2.136;2023-02-24T02:25:46;42.60;;;22.88;;
61085;SDS011;46967;48.876;2.136;2023-02-24T02:28:25;47.97;;;22.80;;
61085;SDS011;46967;48.876;2.136;2023-02-24T02:31:14;45.75;;;22.48;;
61085;SDS011;46967;48.876;2.136;2023-02-24T02:39:47;43.15;;;21.75;;
61085;SDS011;46967;48.876;2.136;2023-02-24T02:42:29;44.22;;;22.05;;
61085;SDS011;46967;48.876;2.136;2023-02-24T02:45:07;46.95;;;22.30;;
61085;SDS011;46967;48.876;2.136;2023-02-24T02:53:09;44.58;;;22.60;;
61085;SDS011;46967;48.876;2.136;2023-02-24T02:55:46;47.17;;;22.95;;
61085;SDS011;46967;48.876;2.136;2023-02-24T02:58:18;47.88;;;22.77;;
61085;SDS011;46967;48.876;2.136;2023-02-24T03:00:51;42.55;;;22.13;;
61085;SDS011;46967;48.876;2.136;2023-02-24T03:03:27;41.70;;;21.75;;
61085;SDS011;46967;48.876;2.136;2023-02-24T03:08:27;43.78;;;21.73;;
61085;SDS011;46967;48.876;2.136;2023-02-24T03:10:55;43.08;;;21.98;;
61085;SDS011;46967;48.876;2.136;2023-02-24T03:13:24;45.90;;;22.15;;
61085;SDS011;46967;48.876;2.136;2023-02-24T03:15:56;45.90;;;21.58;;
61085;SDS011;46967;48.876;2.136;2023-02-24T03:18:34;38.30;;;21.00;;
61085;SDS011;46967;48.876;2.136;2023-02-24T03:21:08;43.58;;;21.23;;
61085;SDS011;46967;48.876;2.136;2023-02-24T03:23:42;42.58;;;22.55;;
61085;SDS011;46967;48.876;2.136;2023-02-24T03:32:04;40.92;;;21.05;;
61085;SDS011;46967;48.876;2.136;2023-02-24T03:37:25;40.45;;;21.50;;
61085;SDS011;46967;48.876;2.136;2023-02-24T03:39:55;40.85;;;20.73;;
61085;SDS011;46967;48.876;2.136;2023-02-24T03:42:22;37.92;;;20.52;;
61085;SDS011;46967;48.876;2.136;2023-02-24T03:44:52;38.50;;;20.92;;
61085;SDS011;46967;48.876;2.136;2023-02-24T03:47:22;35.67;;;20.13;;
61085;SDS011;46967;48.876;2.136;2023-02-24T03:49:48;38.38;;;21.27;;
61085;SDS011;46967;48.876;2.136;2023-02-24T03:57:27;36.42;;;20.70;;
61085;SDS011;46967;48.876;2.136;2023-02-24T04:00:07;42.78;;;21.27;;
61085;SDS011;46967;48.876;2.136;2023-02-24T04:06:10;33.92;;;19.55;;
61085;SDS011;46967;48.876;2.136;2023-02-24T04:08:50;35.33;;;19.80;;
61085;SDS011;46967;48.876;2.136;2023-02-24T04:17:07;34.70;;;20.00;;
61085;SDS011;46967;48.876;2.136;2023-02-24T04:19:43;39.95;;;20.20;;
61085;SDS011;46967;48.876;2.136;2023-02-24T04:22:12;35.75;;;20.20;;
61085;SDS011;46967;48.876;2.136;2023-02-24T04:24:40;39.13;;;20.25;;
61085;SDS011;46967;48.876;2.136;2023-02-24T04:27:08;36.20;;;20.30;;
61085;SDS011;46967;48.876;2.136;2023-02-24T04:29:39;38.08;;;20.40;;
61085;SDS011;46967;48.876;2.136;2023-02-24T04:32:11;36.83;;;20.38;;
61085;SDS011;46967;48.876;2.136;2023-02-24T04:34:38;38.83;;;21.15;;
61085;SDS011;46967;48.876;2.136;2023-02-24T04:37:04;35.15;;;19.55;;
61085;SDS011;46967;48.876;2.136;2023-02-24T04:39:30;35.25;;;19.58;;
61085;SDS011;46967;48.876;2.136;2023-02-24T04:41:55;39.42;;;20.33;;
61085;SDS011;46967;48.876;2.136;2023-02-24T04:44:22;35.42;;;20.15;;
61085;SDS011;46967;48.876;2.136;2023-02-24T04:46:49;39.35;;;21.05;;
61085;SDS011;46967;48.876;2.136;2023-02-24T04:49:15;35.15;;;20.17;;
61085;SDS011;46967;48.876;2.136;2023-02-24T04:51:42;36.03;;;21.02;;
61085;SDS011;46967;48.876;2.136;2023-02-24T04:54:12;40.08;;;21.10;;
61085;SDS011;46967;48.876;2.136;2023-02-24T04:56:41;37.03;;;20.08;;
61085;SDS011;46967;48.876;2.136;2023-02-24T04:59:08;36.28;;;20.98;;
61085;SDS011;46967;48.876;2.136;2023-02-24T05:01:35;37.33;;;20.55;;
61085;SDS011;46967;48.876;2.136;2023-02-24T05:04:03;41.15;;;21.80;;
61085;SDS011;46967;48.876;2.136;2023-02-24T05:06:30;36.13;;;20.92;;
61085;SDS011;46967;48.876;2.136;2023-02-24T05:08:56;40.33;;;21.38;;
61085;SDS011;46967;48.876;2.136;2023-02-24T05:11:21;39.63;;;21.00;;
61085;SDS011;46967;48.876;2.136;2023-02-24T05:13:48;40.58;;;22.15;;
61085;SDS011;46967;48.876;2.136;2023-02-24T05:16:15;39.88;;;21.55;;
61085;SDS011;46967;48.876;2.136;2023-02-24T05:18:42;39.55;;;21.65;;
61085;SDS011;46967;48.876;2.136;2023-02-24T05:21:12;40.30;;;21.80;;
61085;SDS011;46967;48.876;2.136;2023-02-24T05:26:23;37.20;;;20.27;;
61085;SDS011;46967;48.876;2.136;2023-02-24T05:28:50;32.67;;;19.77;;
61085;SDS011;46967;48.876;2.136;2023-02-24T05:31:21;39.28;;;21.30;;
61085;SDS011;46967;48.876;2.136;2023-02-24T05:33:50;35.13;;;21.10;;
61085;SDS011;46967;48.876;2.136;2023-02-24T05:36:22;34.55;;;20.83;;
61085;SDS011;46967;48.876;2.136;2023-02-24T05:38:49;35.17;;;21.45;;
61085;SDS011;46967;48.876;2.136;2023-02-24T05:41:22;37.30;;;21.00;;
61085;SDS011;46967;48.876;2.136;2023-02-24T05:43:56;38.28;;;20.25;;
61085;SDS011;46967;48.876;2.136;2023-02-24T05:46:26;34.20;;;19.63;;
61085;SDS011;46967;48.876;2.136;2023-02-24T05:48:57;35.08;;;20.33;;
61085;SDS011;46967;48.876;2.136;2023-02-24T05:51:24;34.10;;;20.02;;
61085;SDS011;46967;48.876;2.136;2023-02-24T05:53:51;37.17;;;21.02;;
61085;SDS011;46967;48.876;2.136;2023-02-24T05:56:22;35.37;;;20.30;;
61085;SDS011;46967;48.876;2.136;2023-02-24T05:58:48;34.03;;;19.58;;
61085;SDS011;46967;48.876;2.136;2023-02-24T06:01:14;35.58;;;20.88;;
61085;SDS011;46967;48.876;2.136;2023-02-24T06:03:44;32.00;;;19.13;;
61085;SDS011;46967;48.876;2.136;2023-02-24T06:06:15;35.55;;;19.88;;
61085;SDS011;46967;48.876;2.136;2023-02-24T06:08:40;34.78;;;21.00;;
61085;SDS011;46967;48.876;2.136;2023-02-24T06:11:09;35.17;;;19.92;;
61085;SDS011;46967;48.876;2.136;2023-02-24T06:13:35;36.95;;;21.50;;
61085;SDS011;46967;48.876;2.136;2023-02-24T06:16:02;33.22;;;18.63;;
61085;SDS011;46967;48.876;2.136;2023-02-24T06:18:28;34.45;;;18.67;;
61085;SDS011;46967;48.876;2.136;2023-02-24T06:20:54;34.63;;;19.52;;
61085;SDS011;46967;48.876;2.136;2023-02-24T06:23:19;36.08;;;19.73;;
61085;SDS011;46967;48.876;2.136;2023-02-24T06:25:44;37.38;;;19.33;;
61085;SDS011;46967;48.876;2.136;2023-02-24T06:28:10;35.42;;;18.60;;
61085;SDS011;46967;48.876;2.136;2023-02-24T06:30:35;34.08;;;19.63;;
61085;SDS011;46967;48.876;2.136;2023-02-24T06:33:01;31.10;;;18.35;;
61085;SDS011;46967;48.876;2.136;2023-02-24T06:35:29;35.22;;;18.98;;
61085;SDS011;46967;48.876;2.136;2023-02-24T06:37:56;30.15;;;18.77;;
61085;SDS011;46967;48.876;2.136;2023-02-24T06:40:22;34.53;;;17.92;;
61085;SDS011;46967;48.876;2.136;2023-02-24T06:42:49;36.30;;;18.75;;
61085;SDS011;46967;48.876;2.136;2023-02-24T06:45:18;31.52;;;18.98;;
61085;SDS011;46967;48.876;2.136;2023-02-24T06:47:44;37.00;;;18.08;;
61085;SDS011;46967;48.876;2.136;2023-02-24T06:50:13;36.35;;;17.95;;
61085;SDS011;46967;48.876;2.136;2023-02-24T06:52:46;39.00;;;19.08;;
61085;SDS011;46967;48.876;2.136;2023-02-24T06:55:13;29.58;;;17.10;;
61085;SDS011;46967;48.876;2.136;2023-02-24T06:57:52;35.55;;;18.17;;
61085;SDS011;46967;48.876;2.136;2023-02-24T07:00:26;35.08;;;18.58;;
61085;SDS011;46967;48.876;2.136;2023-02-24T07:03:24;32.72;;;17.33;;
61085;SDS011;46967;48.876;2.136;2023-02-24T07:06:03;36.88;;;19.13;;
61085;SDS011;46967;48.876;2.136;2023-02-24T07:08:56;43.20;;;18.88;;
61085;SDS011;46967;48.876;2.136;2023-02-24T07:11:22;38.70;;;19.08;;
61085;SDS011;46967;48.876;2.136;2023-02-24T07:13:48;35.40;;;18.42;;
61085;SDS011;46967;48.876;2.136;2023-02-24T07:16:17;35.67;;;18.05;;
61085;SDS011;46967;48.876;2.136;2023-02-24T07:21:12;39.17;;;17.80;;
61085;SDS011;46967;48.876;2.136;2023-02-24T07:23:40;36.05;;;18.73;;
61085;SDS011;46967;48.876;2.136;2023-02-24T07:26:08;41.97;;;18.60;;
61085;SDS011;46967;48.876;2.136;2023-02-24T07:28:36;39.33;;;19.50;;
61085;SDS011;46967;48.876;2.136;2023-02-24T07:31:04;35.20;;;18.33;;
61085;SDS011;46967;48.876;2.136;2023-02-24T07:33:38;37.88;;;18.30;;
61085;SDS011;46967;48.876;2.136;2023-02-24T07:36:04;39.30;;;19.10;;
61085;SDS011;46967;48.876;2.136;2023-02-24T07:38:37;37.38;;;18.48;;
61085;SDS011;46967;48.876;2.136;2023-02-24T07:41:04;37.28;;;19.27;;
61085;SDS011;46967;48.876;2.136;2023-02-24T07:43:34;39.83;;;18.90;;
61085;SDS011;46967;48.876;2.136;2023-02-24T07:46:20;32.15;;;17.77;;
61085;SDS011;46967;48.876;2.136;2023-02-24T07:48:51;33.67;;;18.23;;
61085;SDS011;46967;48.876;2.136;2023-02-24T07:51:21;38.08;;;17.23;;
61085;SDS011;46967;48.876;2.136;2023-02-24T07:53:51;31.92;;;17.27;;
61085;SDS011;46967;48.876;2.136;2023-02-24T07:56:20;35.30;;;18.60;;
61085;SDS011;46967;48.876;2.136;2023-02-24T07:58:51;44.47;;;17.52;;
61085;SDS011;46967;48.876;2.136;2023-02-24T08:01:23;37.15;;;19.65;;
61085;SDS011;46967;48.876;2.136;2023-02-24T08:03:52;37.30;;;17.73;;
61085;SDS011;46967;48.876;2.136;2023-02-24T08:06:20;35.95;;;18.73;;
61085;SDS011;46967;48.876;2.136;2023-02-24T08:09:01;36.65;;;16.95;;
61085;SDS011;46967;48.876;2.136;2023-02-24T08:11:52;38.13;;;17.08;;
61085;SDS011;46967;48.876;2.136;2023-02-24T08:16:47;37.20;;;16.55;;
61085;SDS011;46967;48.876;2.136;2023-02-24T08:19:15;37.63;;;16.70;;
61085;SDS011;46967;48.876;2.136;2023-02-24T08:21:46;37.20;;;16.80;;
61085;SDS011;46967;48.876;2.136;2023-02-24T08:24:18;37.97;;;17.35;;
61085;SDS011;46967;48.876;2.136;2023-02-24T08:26:48;37.15;;;17.77;;
61085;SDS011;46967;48.876;2.136;2023-02-24T08:29:35;34.45;;;16.13;;
61085;SDS011;46967;48.876;2.136;2023-02-24T08:32:22;37.35;;;17.00;;
61085;SDS011;46967;48.876;2.136;2023-02-24T08:34:48;37.10;;;17.23;;
61085;SDS011;46967;48.876;2.136;2023-02-24T08:37:14;32.63;;;16.73;;
61085;SDS011;46967;48.876;2.136;2023-02-24T08:39:39;29.42;;;15.73;;
61085;SDS011;46967;48.876;2.136;2023-02-24T08:42:07;34.08;;;15.75;;
61085;SDS011;46967;48.876;2.136;2023-02-24T08:44:33;32.88;;;16.17;;
61085;SDS011;46967;48.876;2.136;2023-02-24T08:47:01;34.22;;;16.90;;
61085;SDS011;46967;48.876;2.136;2023-02-24T08:49:29;31.98;;;15.35;;
61085;SDS011;46967;48.876;2.136;2023-02-24T08:51:57;29.63;;;15.70;;
61085;SDS011;46967;48.876;2.136;2023-02-24T08:54:27;36.00;;;15.93;;
61085;SDS011;46967;48.876;2.136;2023-02-24T08:56:56;29.25;;;14.65;;
61085;SDS011;46967;48.876;2.136;2023-02-24T08:59:32;34.13;;;15.13;;
61085;SDS011;46967;48.876;2.136;2023-02-24T09:05:03;28.80;;;14.68;;
61085;SDS011;46967;48.876;2.136;2023-02-24T09:07:35;25.17;;;14.15;;
61085;SDS011;46967;48.876;2.136;2023-02-24T09:10:07;30.92;;;14.25;;
61085;SDS011;46967;48.876;2.136;2023-02-24T09:12:36;33.03;;;16.15;;
61085;SDS011;46967;48.876;2.136;2023-02-24T09:15:05;29.05;;;14.80;;
61085;SDS011;46967;48.876;2.136;2023-02-24T09:17:33;33.40;;;16.27;;
61085;SDS011;46967;48.876;2.136;2023-02-24T09:20:25;29.02;;;14.38;;
61085;SDS011;46967;48.876;2.136;2023-02-24T09:23:11;26.77;;;14.88;;
61085;SDS011;46967;48.876;2.136;2023-02-24T09:25:44;33.75;;;15.25;;
61085;SDS011;46967;48.876;2.136;2023-02-24T09:28:20;28.65;;;15.02;;
61085;SDS011;46967;48.876;2.136;2023-02-24T09:30:54;34.17;;;15.30;;
61085;SDS011;46967;48.876;2.136;2023-02-24T09:33:25;33.85;;;15.35;;
61085;SDS011;46967;48.876;2.136;2023-02-24T09:35:55;29.40;;;15.20;;
61085;SDS011;46967;48.876;2.136;2023-02-24T09:49:51;27.92;;;15.70;;
61085;SDS011;46967;48.876;2.136;2023-02-24T09:52:27;36.65;;;16.02;;
61085;SDS011;46967;48.876;2.136;2023-02-24T09:55:15;29.92;;;14.50;;
61085;SDS011;46967;48.876;2.136;2023-02-24T09:58:07;30.02;;;14.43;;
61085;SDS011;46967;48.876;2.136;2023-02-24T10:00:48;25.02;;;14.15;;
61085;SDS011;46967;48.876;2.136;2023-02-24T10:06:25;28.60;;;14.40;;
61085;SDS011;46967;48.876;2.136;2023-02-24T10:11:57;25.27;;;13.25;;
61085;SDS011;46967;48.876;2.136;2023-02-24T10:17:15;25.02;;;13.82;;
61085;SDS011;46967;48.876;2.136;2023-02-24T10:19:50;29.67;;;14.13;;
61085;SDS011;46967;48.876;2.136;2023-02-24T10:33:34;29.73;;;14.05;;
61085;SDS011;46967;48.876;2.136;2023-02-24T10:36:06;28.83;;;13.37;;
61085;SDS011;46967;48.876;2.136;2023-02-24T10:38:37;25.02;;;13.00;;
61085;SDS011;46967;48.876;2.136;2023-02-24T10:41:09;25.65;;;14.27;;
61085;SDS011;46967;48.876;2.136;2023-02-24T10:43:35;25.42;;;12.48;;
61085;SDS011;46967;48.876;2.136;2023-02-24T10:46:17;28.42;;;13.57;;
61085;SDS011;46967;48.876;2.136;2023-02-24T10:48:59;24.90;;;11.93;;
61085;SDS011;46967;48.876;2.136;2023-02-24T10:51:30;23.80;;;12.57;;
61085;SDS011;46967;48.876;2.136;2023-02-24T10:56:34;20.88;;;11.52;;
61085;SDS011;46967;48.876;2.136;2023-02-24T10:59:12;28.35;;;13.00;;
61085;SDS011;46967;48.876;2.136;2023-02-24T11:01:53;28.63;;;12.80;;
61085;SDS011;46967;48.876;2.136;2023-02-24T11:04:29;27.58;;;12.15;;
61085;SDS011;46967;48.876;2.136;2023-02-24T11:07:02;29.38;;;12.82;;
61085;SDS011;46967;48.876;2.136;2023-02-24T11:12:22;26.58;;;11.18;;
61085;SDS011;46967;48.876;2.136;2023-02-24T11:15:17;28.35;;;10.65;;
61085;SDS011;46967;48.876;2.136;2023-02-24T11:18:04;18.27;;;9.80;;
61085;SDS011;46967;48.876;2.136;2023-02-24T11:20:40;20.63;;;9.55;;
61085;SDS011;46967;48.876;2.136;2023-02-24T11:23:11;21.60;;;9.32;;
61085;SDS011;46967;48.876;2.136;2023-02-24T11:33:54;20.13;;;8.77;;
61085;SDS011;46967;48.876;2.136;2023-02-24T11:42:02;19.10;;;8.27;;
61085;SDS011;46967;48.876;2.136;2023-02-24T11:44:50;20.05;;;7.80;;
61085;SDS011;46967;48.876;2.136;2023-02-24T11:47:26;20.08;;;7.78;;
61085;SDS011;46967;48.876;2.136;2023-02-24T11:50:16;23.88;;;7.78;;
61085;SDS011;46967;48.876;2.136;2023-02-24T11:52:50;18.77;;;7.55;;
61085;SDS011;46967;48.876;2.136;2023-02-24T11:58:36;17.08;;;6.88;;
61085;SDS011;46967;48.876;2.136;2023-02-24T12:01:07;16.77;;;7.45;;
61085;SDS011;46967;48.876;2.136;2023-02-24T12:06:04;15.65;;;7.03;;
61085;SDS011;46967;48.876;2.136;2023-02-24T12:08:37;17.08;;;6.78;;
61085;SDS011;46967;48.876;2.136;2023-02-24T12:11:10;20.65;;;8.40;;
61085;SDS011;46967;48.876;2.136;2023-02-24T12:13:52;13.75;;;6.88;;
61085;SDS011;46967;48.876;2.136;2023-02-24T12:16:24;14.38;;;6.93;;
61085;SDS011;46967;48.876;2.136;2023-02-24T12:21:52;25.08;;;6.82;;
61085;SDS011;46967;48.876;2.136;2023-02-24T12:24:24;18.25;;;6.70;;
61085;SDS011;46967;48.876;2.136;2023-02-24T12:27:02;14.15;;;6.00;;
61085;SDS011;46967;48.876;2.136;2023-02-24T12:46:01;13.43;;;5.97;;
61085;SDS011;46967;48.876;2.136;2023-02-24T12:51:31;14.38;;;5.50;;
61085;SDS011;46967;48.876;2.136;2023-02-24T12:54:32;12.95;;;5.13;;
61085;SDS011;46967;48.876;2.136;2023-02-24T12:57:15;14.65;;;5.70;;
61085;SDS011;46967;48.876;2.136;2023-02-24T12:59:51;13.98;;;4.85;;
61085;SDS011;46967;48.876;2.136;2023-02-24T13:05:22;12.50;;;5.57;;
61085;SDS011;46967;48.876;2.136;2023-02-24T13:08:09;16.23;;;5.05;;
61085;SDS011;46967;48.876;2.136;2023-02-24T13:11:11;19.08;;;4.88;;
61085;SDS011;46967;48.876;2.136;2023-02-24T13:13:47;8.65;;;3.92;;
61085;SDS011;46967;48.876;2.136;2023-02-24T13:16:14;11.05;;;4.22;;
61085;SDS011;46967;48.876;2.136;2023-02-24T13:18:50;12.75;;;4.90;;
61085;SDS011;46967;48.876;2.136;2023-02-24T13:21:17;10.88;;;4.15;;
61085;SDS011;46967;48.876;2.136;2023-02-24T13:23:59;12.05;;;5.30;;
61085;SDS011;46967;48.876;2.136;2023-02-24T13:26:26;11.55;;;5.13;;
61085;SDS011;46967;48.876;2.136;2023-02-24T13:29:01;12.27;;;5.22;;
61085;SDS011;46967;48.876;2.136;2023-02-24T13:31:44;17.92;;;4.85;;
61085;SDS011;46967;48.876;2.136;2023-02-24T13:34:14;15.98;;;4.78;;
61085;SDS011;46967;48.876;2.136;2023-02-24T13:36:54;11.52;;;4.60;;
61085;SDS011;46967;48.876;2.136;2023-02-24T13:39:21;13.20;;;5.25;;
61085;SDS011;46967;48.876;2.136;2023-02-24T13:42:02;14.02;;;6.15;;
61085;SDS011;46967;48.876;2.136;2023-02-24T13:44:29;11.25;;;5.20;;
61085;SDS011;46967;48.876;2.136;2023-02-24T13:49:45;10.27;;;4.85;;
61085;SDS011;46967;48.876;2.136;2023-02-24T13:55:36;11.77;;;5.25;;
61085;SDS011;46967;48.876;2.136;2023-02-24T14:03:31;9.85;;;4.68;;
61085;SDS011;46967;48.876;2.136;2023-02-24T14:05:58;8.65;;;4.47;;
61085;SDS011;46967;48.876;2.136;2023-02-24T14:08:32;12.32;;;5.32;;
61085;SDS011;46967;48.876;2.136;2023-02-24T14:11:10;10.63;;;4.82;;
61085;SDS011;46967;48.876;2.136;2023-02-24T14:13:39;10.70;;;5.35;;
61085;SDS011;46967;48.876;2.136;2023-02-24T14:16:10;14.55;;;4.97;;
61085;SDS011;46967;48.876;2.136;2023-02-24T14:18:41;11.25;;;4.65;;
61085;SDS011;46967;48.876;2.136;2023-02-24T14:21:19;10.00;;;4.60;;
61085;SDS011;46967;48.876;2.136;2023-02-24T14:23:53;12.13;;;4.60;;
61085;SDS011;46967;48.876;2.136;2023-02-24T14:26:23;10.40;;;3.95;;
61085;SDS011;46967;48.876;2.136;2023-02-24T14:28:56;11.10;;;4.28;;
61085;SDS011;46967;48.876;2.136;2023-02-24T14:31:27;5.75;;;3.17;;
61085;SDS011;46967;48.876;2.136;2023-02-24T14:33:57;14.73;;;3.88;;
61085;SDS011;46967;48.876;2.136;2023-02-24T14:36:29;13.00;;;3.50;;
61085;SDS011;46967;48.876;2.136;2023-02-24T14:38:59;9.00;;;3.47;;
61085;SDS011;46967;48.876;2.136;2023-02-24T14:41:33;8.55;;;3.70;;
61085;SDS011;46967;48.876;2.136;2023-02-24T14:44:03;8.55;;;3.47;;
61085;SDS011;46967;48.876;2.136;2023-02-24T14:46:47;5.78;;;3.10;;
61085;SDS011;46967;48.876;2.136;2023-02-24T14:49:16;7.65;;;3.35;;
61085;SDS011;46967;48.876;2.136;2023-02-24T14:51:44;8.73;;;3.55;;
61085;SDS011;46967;48.876;2.136;2023-02-24T14:54:14;10.10;;;3.65;;
61085;SDS011;46967;48.876;2.136;2023-02-24T14:56:47;7.88;;;2.80;;
61085;SDS011;46967;48.876;2.136;2023-02-24T14:59:18;12.63;;;3.33;;
61085;SDS011;46967;48.876;2.136;2023-02-24T15:01:55;6.15;;;2.78;;
61085;SDS011;46967;48.876;2.136;2023-02-24T15:06:52;7.10;;;3.10;;
61085;SDS011;46967;48.876;2.136;2023-02-24T15:09:18;6.30;;;2.92;;
61085;SDS011;46967;48.876;2.136;2023-02-24T15:11:48;8.82;;;2.78;;
61085;SDS011;46967;48.876;2.136;2023-02-24T15:16:48;6.00;;;2.72;;
61085;SDS011;46967;48.876;2.136;2023-02-24T15:19:30;8.55;;;2.80;;
61085;SDS011;46967;48.876;2.136;2023-02-24T15:21:59;6.25;;;2.85;;
61085;SDS011;46967;48.876;2.136;2023-02-24T15:24:29;3.55;;;2.53;;
61085;SDS011;46967;48.876;2.136;2023-02-24T15:27:17;4.63;;;2.65;;
61085;SDS011;46967;48.876;2.136;2023-02-24T15:29:56;6.35;;;2.60;;
61085;SDS011;46967;48.876;2.136;2023-02-24T15:32:35;4.28;;;2.67;;
61085;SDS011;46967;48.876;2.136;2023-02-24T15:35:02;7.75;;;2.72;;
61085;SDS011;46967;48.876;2.136;2023-02-24T15:37:36;4.28;;;2.40;;
61085;SDS011;46967;48.876;2.136;2023-02-24T15:40:18;4.20;;;2.28;;
61085;SDS011;46967;48.876;2.136;2023-02-24T15:47:52;5.15;;;2.50;;
61085;SDS011;46967;48.876;2.136;2023-02-24T15:50:20;8.63;;;2.45;;
61085;SDS011;46967;48.876;2.136;2023-02-24T15:52:46;5.88;;;1.92;;
61085;SDS011;46967;48.876;2.136;2023-02-24T15:55:15;4.60;;;1.95;;
61085;SDS011;46967;48.876;2.136;2023-02-24T15:57:42;4.07;;;2.00;;
61085;SDS011;46967;48.876;2.136;2023-02-24T16:00:08;4.78;;;2.10;;
61085;SDS011;46967;48.876;2.136;2023-02-24T16:02:38;4.82;;;1.98;;
61085;SDS011;46967;48.876;2.136;2023-02-24T16:05:04;4.55;;;1.95;;
61085;SDS011;46967;48.876;2.136;2023-02-24T16:07:34;5.18;;;2.20;;
61085;SDS011;46967;48.876;2.136;2023-02-24T16:10:01;5.10;;;2.13;;
61085;SDS011;46967;48.876;2.136;2023-02-24T16:12:28;6.93;;;1.98;;
61085;SDS011;46967;48.876;2.136;2023-02-24T16:14:57;7.93;;;2.58;;
61085;SDS011;46967;48.876;2.136;2023-02-24T16:17:30;5.78;;;2.30;;
61085;SDS011;46967;48.876;2.136;2023-02-24T16:19:57;4.68;;;1.95;;
61085;SDS011;46967;48.876;2.136;2023-02-24T16:22:23;5.32;;;2.10;;
61085;SDS011;46967;48.876;2.136;2023-02-24T16:24:49;8.50;;;2.63;;
61085;SDS011;46967;48.876;2.136;2023-02-24T16:27:18;5.30;;;2.13;;
61085;SDS011;46967;48.876;2.136;2023-02-24T16:29:46;8.63;;;2.42;;
61085;SDS011;46967;48.876;2.136;2023-02-24T16:32:14;4.63;;;2.25;;
61085;SDS011;46967;48.876;2.136;2023-02-24T16:34:39;4.40;;;2.20;;
61085;SDS011;46967;48.876;2.136;2023-02-24T16:37:09;7.15;;;2.42;;
61085;SDS011;46967;48.876;2.136;2023-02-24T16:39:41;10.07;;;2.60;;
61085;SDS011;46967;48.876;2.136;2023-02-24T16:42:08;7.57;;;2.50;;
61085;SDS011;46967;48.876;2.136;2023-02-24T16:44:34;6.15;;;2.30;;
61085;SDS011;46967;48.876;2.136;2023-02-24T16:46:59;4.15;;;2.20;;
61085;SDS011;46967;48.876;2.136;2023-02-24T16:49:25;6.82;;;2.40;;
61085;SDS011;46967;48.876;2.136;2023-02-24T16:51:51;7.68;;;2.50;;
61085;SDS011;46967;48.876;2.136;2023-02-24T16:54:16;8.13;;;2.47;;
61085;SDS011;46967;48.876;2.136;2023-02-24T16:56:43;8.65;;;2.30;;
61085;SDS011;46967;48.876;2.136;2023-02-24T16:59:10;7.05;;;2.92;;
61085;SDS011;46967;48.876;2.136;2023-02-24T17:01:35;6.10;;;2.50;;
61085;SDS011;46967;48.876;2.136;2023-02-24T17:04:01;7.88;;;2.90;;
61085;SDS011;46967;48.876;2.136;2023-02-24T17:06:29;6.20;;;2.38;;
61085;SDS011;46967;48.876;2.136;2023-02-24T17:08:54;8.48;;;2.90;;
61085;SDS011;46967;48.876;2.136;2023-02-24T17:11:19;8.02;;;2.63;;
61085;SDS011;46967;48.876;2.136;2023-02-24T17:13:47;7.07;;;2.40;;
61085;SDS011;46967;48.876;2.136;2023-02-24T17:16:12;7.00;;;2.47;;
61085;SDS011;46967;48.876;2.136;2023-02-24T17:18:38;7.25;;;3.88;;
61085;SDS011;46967;48.876;2.136;2023-02-24T17:21:04;8.05;;;3.20;;
61085;SDS011;46967;48.876;2.136;2023-02-24T17:23:29;5.80;;;2.50;;
61085;SDS011;46967;48.876;2.136;2023-02-24T17:25:57;5.13;;;2.30;;
61085;SDS011;46967;48.876;2.136;2023-02-24T17:28:24;6.75;;;3.00;;
61085;SDS011;46967;48.876;2.136;2023-02-24T17:30:50;8.02;;;2.45;;
61085;SDS011;46967;48.876;2.136;2023-02-24T17:33:15;9.20;;;3.10;;
61085;SDS011;46967;48.876;2.136;2023-02-24T17:35:41;10.07;;;3.30;;